This is the latest recevied weather packets stored in our database for station/object KD9IXX-13. If no packets are shown the sender has not sent any weather packets the latest 10 day(s).
| Time | Temp. | Humidity | Pressure | Rain* | Wind** | Luminosity | Snow |
|---|---|---|---|---|---|---|---|
| 1787958901 | 26.67° C | 58% | 1020.8 hPa | 0 mm | - | 63 W/m² | - |
| 1787958302 | 26.67° C | 58% | 1020.5 hPa | 0 mm | - | 87 W/m² | - |
| 1787957702 | 27.22° C | 58% | 1020.8 hPa | 0 mm | - | 104 W/m² | - |
| 1787957102 | 27.22° C | 57% | 1021 hPa | 0 mm | - | 124 W/m² | - |
| 1787956202 | 27.78° C | 57% | 1021 hPa | 0 mm | - | 174 W/m² | - |
| 1787955902 | 27.78° C | 56% | 1021 hPa | 0 mm | - | 186 W/m² | - |
| 1787955002 | 27.78° C | 56% | 1020.9 hPa | 0 mm | - | 243 W/m² | - |
| 1787954702 | 27.78° C | 56% | 1020.8 hPa | 0 mm | - | 246 W/m² | - |
| 1787954102 | 27.78° C | 56% | 1020.9 hPa | 0 mm | - | 275 W/m² | - |
| 1787953502 | 28.33° C | 58% | 1020.7 hPa | 0 mm | - | 306 W/m² | - |
| 1787952902 | 27.78° C | 57% | 1021 hPa | 0 mm | - | 319 W/m² | - |
| 1787952602 | 28.33° C | 55% | 1021 hPa | 0 mm | - | 290 W/m² | - |
| 1787951402 | 28.33° C | 56% | 1021 hPa | 0 mm | - | 453 W/m² | - |
| 1787951102 | 27.78° C | 60% | 1021.1 hPa | 0 mm | - | 445 W/m² | - |
| 1787950202 | 28.33° C | 61% | 1021.1 hPa | 0 mm | - | 458 W/m² | - |
| 1787948702 | 27.22° C | 63% | 1021.7 hPa | 0 mm | - | 178 W/m² | - |
| 1787948102 | 28.33° C | 60% | 1021.4 hPa | 0 mm | - | 563 W/m² | - |
| 1787947802 | 28.33° C | 59% | 1021.5 hPa | 0 mm | - | 580 W/m² | - |
| 1787947502 | 27.78° C | 61% | 1021.7 hPa | 0 mm | - | 609 W/m² | - |
| 1787946902 | 26.67° C | 62% | 1021.8 hPa | 0 mm | - | 538 W/m² | - |
| 1787945702 | 28.33° C | 57% | 1021.8 hPa | 0 mm | - | 679 W/m² | - |
| 1787944502 | 27.22° C | 64% | 1021.8 hPa | 0 mm | - | 706 W/m² | - |
| 1787944202 | 26.67° C | 62% | 1022.1 hPa | 0 mm | - | 186 W/m² | - |
| 1787943902 | 27.78° C | 62% | 1022 hPa | 0 mm | - | 216 W/m² | - |
| 1787943302 | 27.78° C | 62% | 1022.1 hPa | 0 mm | - | 675 W/m² | - |
* Rain latest hour (hover to see other rain measurements)
** Current wind speed in m/s (hover to see current wind gust speed)